createdAt,value
2023-03-03T00:01:56.737Z,6.25
2023-03-03T00:04:26.212Z,5.75
2023-03-03T00:06:58.378Z,5.53
2023-03-03T00:09:27.880Z,5.57
2023-03-03T00:11:58.475Z,8.00
2023-03-03T00:14:30.148Z,6.40
2023-03-03T00:16:59.798Z,6.43
2023-03-03T00:19:29.326Z,5.50
2023-03-03T00:22:01.318Z,4.75
2023-03-03T00:24:35.632Z,5.43
2023-03-03T00:27:09.886Z,5.47
2023-03-03T00:29:39.913Z,5.43
2023-03-03T00:32:28.141Z,5.50
2023-03-03T00:34:58.964Z,5.07
2023-03-03T00:37:37.907Z,5.28
2023-03-03T00:40:24.959Z,4.72
2023-03-03T00:42:55.633Z,5.43
2023-03-03T00:45:36.483Z,5.40
2023-03-03T00:48:28.468Z,5.18
2023-03-03T00:50:58.388Z,5.60
2023-03-03T00:53:32.787Z,5.13
2023-03-03T00:56:02.405Z,5.45
2023-03-03T00:58:31.839Z,5.18
2023-03-03T01:01:01.415Z,5.35
2023-03-03T01:03:30.827Z,5.47
2023-03-03T01:06:00.306Z,5.45
2023-03-03T01:08:32.299Z,5.53
2023-03-03T01:11:02.972Z,5.50
2023-03-03T01:13:33.321Z,5.43
2023-03-03T01:16:02.839Z,5.72
2023-03-03T01:18:32.589Z,5.70
2023-03-03T01:21:02.126Z,5.55
2023-03-03T01:23:34.164Z,5.18
2023-03-03T01:26:03.650Z,5.90
2023-03-03T01:28:33.075Z,5.50
2023-03-03T01:31:04.185Z,6.43
2023-03-03T01:36:03.812Z,6.00
2023-03-03T01:38:37.796Z,6.18
2023-03-03T01:41:07.789Z,6.25
2023-03-03T01:43:37.344Z,5.80
2023-03-03T01:46:34.889Z,5.60
2023-03-03T01:49:05.407Z,6.20
2023-03-03T01:51:36.294Z,6.22
2023-03-03T01:54:09.551Z,6.43
2023-03-03T01:56:38.995Z,6.03
2023-03-03T01:59:09.114Z,6.32
2023-03-03T02:01:38.704Z,6.43
2023-03-03T02:04:08.411Z,6.45
2023-03-03T02:06:39.792Z,6.20
2023-03-03T02:09:14.472Z,6.28
2023-03-03T02:11:45.075Z,6.35
2023-03-03T02:14:14.650Z,6.82
2023-03-03T02:16:44.104Z,6.65
2023-03-03T02:19:19.287Z,6.35
2023-03-03T02:21:48.728Z,6.40
2023-03-03T02:24:24.527Z,6.38
2023-03-03T02:26:56.574Z,6.65
2023-03-03T02:29:26.014Z,8.15
2023-03-03T02:31:55.584Z,6.95
2023-03-03T02:34:25.080Z,7.70
2023-03-03T02:36:54.538Z,7.30
2023-03-03T02:39:26.514Z,7.47
2023-03-03T02:42:00.515Z,7.65
2023-03-03T02:44:30.809Z,7.35
2023-03-03T02:47:00.586Z,7.68
2023-03-03T02:49:32.216Z,7.43
2023-03-03T02:52:01.916Z,7.32
2023-03-03T02:54:32.507Z,7.47
2023-03-03T02:57:04.624Z,7.40
2023-03-03T02:59:34.066Z,7.40
2023-03-03T03:02:03.656Z,7.20
2023-03-03T03:04:33.141Z,6.97
2023-03-03T03:07:03.549Z,7.78
2023-03-03T03:09:33.051Z,7.35
2023-03-03T03:12:05.391Z,7.30
2023-03-03T03:14:34.875Z,7.38
2023-03-03T03:17:04.898Z,7.20
2023-03-03T03:19:34.331Z,7.88
2023-03-03T03:25:21.618Z,7.75
2023-03-03T03:27:53.657Z,7.78
2023-03-03T03:30:23.174Z,7.80
2023-03-03T03:32:52.656Z,7.65
2023-03-03T03:35:22.144Z,8.15
2023-03-03T03:37:51.604Z,8.10
2023-03-03T03:40:21.362Z,9.13
2023-03-03T03:42:53.414Z,9.10
2023-03-03T03:45:22.934Z,8.80
2023-03-03T03:47:52.445Z,9.30
2023-03-03T03:50:22.072Z,10.00
2023-03-03T03:52:52.162Z,9.30
2023-03-03T03:55:22.614Z,10.85
2023-03-03T03:57:54.646Z,10.40
2023-03-03T04:00:24.243Z,10.13
2023-03-03T04:02:53.940Z,10.65
2023-03-03T04:05:23.511Z,11.75
2023-03-03T04:07:52.992Z,11.82
2023-03-03T04:10:22.449Z,13.25
2023-03-03T04:12:54.489Z,15.02
2023-03-03T04:15:23.947Z,12.40
2023-03-03T04:17:53.400Z,11.68
2023-03-03T04:20:23.098Z,14.43
2023-03-03T04:22:52.718Z,16.13
2023-03-03T04:25:22.373Z,17.10
2023-03-03T04:27:54.827Z,16.30
2023-03-03T04:30:24.288Z,16.05
2023-03-03T04:32:53.933Z,16.42
2023-03-03T04:35:23.433Z,16.25
2023-03-03T04:37:52.914Z,17.90
2023-03-03T04:40:22.541Z,16.55
2023-03-03T04:42:54.703Z,17.48
2023-03-03T04:45:26.494Z,17.48
2023-03-03T04:47:55.976Z,18.00
2023-03-03T04:50:25.416Z,17.10
2023-03-03T04:52:54.843Z,18.02
2023-03-03T04:55:24.338Z,17.33
2023-03-03T04:57:56.633Z,18.02
2023-03-03T05:00:26.294Z,18.00
2023-03-03T05:02:55.747Z,18.38
2023-03-03T05:05:28.070Z,18.48
2023-03-03T05:07:57.550Z,19.15
2023-03-03T05:10:29.765Z,19.50
2023-03-03T05:13:01.822Z,18.48
2023-03-03T05:15:31.309Z,18.95
2023-03-03T05:18:00.803Z,18.77
2023-03-03T05:20:30.262Z,18.40
2023-03-03T05:23:01.633Z,18.98
2023-03-03T05:25:31.149Z,19.85
2023-03-03T05:28:04.733Z,19.20
2023-03-03T05:30:34.253Z,19.50
2023-03-03T05:33:03.716Z,18.65
2023-03-03T05:35:33.255Z,16.30
2023-03-03T05:38:05.326Z,16.02
2023-03-03T05:40:35.030Z,16.80
2023-03-03T05:43:07.252Z,15.65
2023-03-03T05:45:36.713Z,15.95
2023-03-03T05:48:06.492Z,16.10
2023-03-03T05:50:36.144Z,15.80
2023-03-03T05:53:05.616Z,18.30
2023-03-03T05:55:35.086Z,18.15
2023-03-03T05:58:07.124Z,18.73
2023-03-03T06:00:36.589Z,19.90
2023-03-03T06:03:06.218Z,19.48
2023-03-03T06:05:35.726Z,20.08
2023-03-03T06:08:05.176Z,20.60
2023-03-03T06:10:34.997Z,20.23
2023-03-03T06:13:07.347Z,20.13
2023-03-03T06:15:39.569Z,19.92
2023-03-03T06:18:09.066Z,21.08
2023-03-03T06:20:38.832Z,20.35
2023-03-03T06:23:08.416Z,21.25
2023-03-03T06:25:38.364Z,20.98
2023-03-03T06:28:10.416Z,21.17
2023-03-03T06:30:40.316Z,21.73
2023-03-03T06:33:09.842Z,21.58
2023-03-03T06:35:39.599Z,21.50
2023-03-03T06:38:09.089Z,21.70
2023-03-03T06:40:38.927Z,21.58
2023-03-03T06:43:10.954Z,21.98
2023-03-03T06:45:40.792Z,21.52
2023-03-03T06:48:10.313Z,21.27
2023-03-03T06:50:39.820Z,22.13
2023-03-03T06:53:14.213Z,21.85
2023-03-03T06:55:44.932Z,21.38
2023-03-03T06:58:17.925Z,20.38
2023-03-03T07:00:48.086Z,21.48
2023-03-03T07:03:18.453Z,21.47
2023-03-03T07:05:48.129Z,21.75
2023-03-03T07:08:18.718Z,22.02
2023-03-03T07:10:48.486Z,20.98
2023-03-03T07:13:23.106Z,21.55
2023-03-03T07:15:53.002Z,22.40
2023-03-03T07:18:37.812Z,21.90
2023-03-03T07:21:17.493Z,22.05
2023-03-03T07:23:47.506Z,23.70
2023-03-03T07:26:17.774Z,21.73
2023-03-03T07:28:53.715Z,21.98
2023-03-03T07:31:30.240Z,20.40
2023-03-03T07:34:00.344Z,21.92
2023-03-03T07:36:31.398Z,21.20
2023-03-03T07:41:31.668Z,20.47
2023-03-03T07:44:07.746Z,19.45
2023-03-03T07:46:39.737Z,19.55
2023-03-03T07:49:18.876Z,19.73
2023-03-03T07:51:48.354Z,18.92
2023-03-03T07:54:30.721Z,19.67
2023-03-03T07:57:00.769Z,20.08
2023-03-03T07:59:32.929Z,19.65
2023-03-03T08:02:02.404Z,19.25
2023-03-03T08:04:32.580Z,19.20
2023-03-03T08:07:02.350Z,20.03
2023-03-03T08:09:43.801Z,19.60
2023-03-03T08:12:38.024Z,20.20
2023-03-03T08:15:31.292Z,22.80
2023-03-03T08:18:00.785Z,23.25
2023-03-03T08:20:49.014Z,20.05
2023-03-03T08:23:19.292Z,19.02
2023-03-03T08:25:49.323Z,18.58
2023-03-03T08:28:19.043Z,17.27
2023-03-03T08:30:52.122Z,21.35
2023-03-03T08:33:22.634Z,25.02
2023-03-03T08:35:52.140Z,18.90
2023-03-03T08:38:22.633Z,19.08
2023-03-03T08:40:52.228Z,17.40
2023-03-03T08:43:22.884Z,18.10
2023-03-03T08:45:55.871Z,18.15
2023-03-03T08:48:25.373Z,17.90
2023-03-03T08:50:55.014Z,18.35
2023-03-03T08:53:24.624Z,17.67
2023-03-03T08:55:54.123Z,17.75
2023-03-03T08:58:33.577Z,17.83
2023-03-03T09:01:06.858Z,17.40
2023-03-03T09:03:36.307Z,16.55
2023-03-03T09:06:05.761Z,18.35
2023-03-03T09:08:35.264Z,17.70
2023-03-03T09:11:05.015Z,18.08
2023-03-03T09:13:34.511Z,17.10
2023-03-03T09:16:09.997Z,17.60
2023-03-03T09:18:40.245Z,18.20
2023-03-03T09:21:20.793Z,18.33
2023-03-03T09:23:52.656Z,17.17
2023-03-03T09:26:32.448Z,18.10
2023-03-03T09:29:18.407Z,17.42
2023-03-03T09:31:51.807Z,19.33
2023-03-03T09:34:26.122Z,18.88
2023-03-03T09:36:56.083Z,17.92
2023-03-03T09:39:26.216Z,19.40
2023-03-03T09:42:26.094Z,19.40
2023-03-03T09:45:28.369Z,18.30
2023-03-03T09:48:28.062Z,18.02
2023-03-03T09:51:04.128Z,18.02
2023-03-03T09:53:50.268Z,18.48
2023-03-03T09:56:22.132Z,18.33
2023-03-03T09:59:04.691Z,18.42
2023-03-03T10:01:51.794Z,17.73
2023-03-03T10:04:45.547Z,18.77
2023-03-03T10:07:26.183Z,18.92
2023-03-03T10:10:06.215Z,18.27
2023-03-03T10:12:38.323Z,18.08
2023-03-03T10:15:31.907Z,18.55
2023-03-03T10:18:04.455Z,17.70
2023-03-03T10:20:55.217Z,17.55
2023-03-03T10:23:27.027Z,17.00
2023-03-03T10:26:00.863Z,17.13
2023-03-03T10:28:53.798Z,17.75
2023-03-03T10:31:29.028Z,17.40
2023-03-03T10:34:00.681Z,17.48
2023-03-03T10:36:44.601Z,17.25
2023-03-03T10:39:30.959Z,17.10
2023-03-03T10:42:07.750Z,16.80
2023-03-03T10:44:46.884Z,17.70
2023-03-03T10:47:32.752Z,17.02
2023-03-03T10:50:06.959Z,17.55
2023-03-03T10:52:41.752Z,17.67
2023-03-03T10:55:41.830Z,17.55
2023-03-03T10:58:35.663Z,17.10
2023-03-03T11:01:10.337Z,17.42
2023-03-03T11:03:54.718Z,16.27
2023-03-03T11:06:26.220Z,16.02
2023-03-03T11:08:59.852Z,16.40
2023-03-03T11:11:34.724Z,16.88
2023-03-03T11:14:06.484Z,17.08
2023-03-03T11:16:50.527Z,15.95
2023-03-03T11:19:40.193Z,16.00
2023-03-03T11:22:19.562Z,15.80
2023-03-03T11:24:57.518Z,15.05
2023-03-03T11:27:41.300Z,14.88
2023-03-03T11:30:27.165Z,14.77
2023-03-03T11:33:00.401Z,14.50
2023-03-03T11:35:30.875Z,13.93
2023-03-03T11:38:05.916Z,14.32
2023-03-03T11:40:40.848Z,14.30
2023-03-03T11:43:26.286Z,14.40
2023-03-03T11:46:06.850Z,13.93
2023-03-03T11:48:39.066Z,13.90
2023-03-03T11:51:09.422Z,13.95
2023-03-03T11:53:47.852Z,13.57
2023-03-03T11:56:24.143Z,13.52
2023-03-03T11:58:58.064Z,12.88
2023-03-03T12:01:30.281Z,14.98
2023-03-03T12:04:00.433Z,15.20
2023-03-03T12:06:34.034Z,15.70
2023-03-03T12:09:07.422Z,15.45
2023-03-03T12:11:42.564Z,15.65
2023-03-03T12:14:14.374Z,14.18
2023-03-03T12:16:48.038Z,14.95
2023-03-03T12:19:34.607Z,13.88
2023-03-03T12:22:24.786Z,13.60
2023-03-03T12:25:16.115Z,13.52
2023-03-03T12:30:23.785Z,12.63
2023-03-03T12:33:07.220Z,11.00
2023-03-03T12:35:39.236Z,10.52
2023-03-03T12:38:11.970Z,10.73
2023-03-03T12:40:43.584Z,14.68
2023-03-03T12:43:25.919Z,14.68
2023-03-03T12:46:00.312Z,14.95
2023-03-03T12:48:35.862Z,14.30
2023-03-03T12:51:07.566Z,14.25
2023-03-03T12:53:49.567Z,14.45
2023-03-03T12:56:21.806Z,14.93
2023-03-03T12:58:58.020Z,13.68
2023-03-03T13:01:44.155Z,15.05
2023-03-03T13:04:16.779Z,13.65
2023-03-03T13:06:48.867Z,13.45
2023-03-03T13:09:23.264Z,13.32
2023-03-03T13:12:02.767Z,14.00
2023-03-03T13:14:38.710Z,14.00
2023-03-03T13:17:16.620Z,14.30
2023-03-03T13:19:48.612Z,14.10
2023-03-03T13:22:20.205Z,13.88
2023-03-03T13:24:58.423Z,13.77
2023-03-03T13:27:28.553Z,14.10
2023-03-03T13:30:03.490Z,14.25
2023-03-03T13:32:37.547Z,13.13
2023-03-03T13:35:10.305Z,12.93
2023-03-03T13:37:42.224Z,13.48
2023-03-03T13:40:18.413Z,13.13
2023-03-03T13:42:49.301Z,13.13
2023-03-03T13:45:26.661Z,13.35
2023-03-03T13:48:00.805Z,12.43
2023-03-03T13:50:31.101Z,12.68
2023-03-03T13:53:16.416Z,12.87
2023-03-03T13:55:46.693Z,13.35
2023-03-03T13:58:21.222Z,15.52
2023-03-03T14:01:00.061Z,15.02
2023-03-03T14:03:50.645Z,14.45
2023-03-03T14:06:20.739Z,13.85
2023-03-03T14:08:57.512Z,14.60
2023-03-03T14:11:29.133Z,14.73
2023-03-03T14:14:03.416Z,14.98
2023-03-03T14:16:45.146Z,15.32
2023-03-03T14:19:17.803Z,14.63
2023-03-03T14:21:52.034Z,14.23
2023-03-03T14:24:22.581Z,15.27
2023-03-03T14:26:53.031Z,16.90
2023-03-03T14:29:25.065Z,14.57
2023-03-03T14:31:57.326Z,15.70
2023-03-03T14:34:37.268Z,15.45
2023-03-03T14:37:23.579Z,14.20
2023-03-03T14:39:55.537Z,14.55
2023-03-03T14:42:35.504Z,16.23
2023-03-03T14:45:14.565Z,14.10
2023-03-03T14:47:55.756Z,13.77
2023-03-03T14:50:34.734Z,14.18
2023-03-03T14:53:17.548Z,14.35
2023-03-03T14:55:48.156Z,15.82
2023-03-03T14:58:32.262Z,15.85
2023-03-03T15:01:15.492Z,15.32
2023-03-03T15:03:52.614Z,16.23
2023-03-03T15:06:39.879Z,15.98
2023-03-03T15:09:28.068Z,15.90
2023-03-03T15:11:58.031Z,16.70
2023-03-03T15:14:32.598Z,14.88
2023-03-03T15:17:19.250Z,14.95
2023-03-03T15:19:55.593Z,14.48
2023-03-03T15:22:39.177Z,14.57
2023-03-03T15:25:13.851Z,14.18
2023-03-03T15:27:45.653Z,14.82
2023-03-03T15:30:21.648Z,15.40
2023-03-03T15:32:53.590Z,15.82
2023-03-03T15:35:37.868Z,15.88
2023-03-03T15:38:13.289Z,15.20
2023-03-03T15:40:45.182Z,15.07
2023-03-03T15:43:17.985Z,16.00
2023-03-03T15:45:49.257Z,15.65
2023-03-03T15:48:27.227Z,15.68
2023-03-03T15:51:06.351Z,15.43
2023-03-03T15:53:53.770Z,15.85
2023-03-03T15:56:28.831Z,16.65
2023-03-03T15:59:18.994Z,17.35
2023-03-03T16:01:50.382Z,16.73
2023-03-03T16:04:21.725Z,16.75
2023-03-03T16:06:57.459Z,17.50
2023-03-03T16:09:33.994Z,17.20
2023-03-03T16:12:05.849Z,18.55
2023-03-03T16:14:47.630Z,19.33
2023-03-03T16:17:23.616Z,18.23
2023-03-03T16:19:56.436Z,18.67
2023-03-03T16:22:39.498Z,18.80
2023-03-03T16:25:39.952Z,18.52
2023-03-03T16:28:11.389Z,20.40
2023-03-03T16:30:43.081Z,20.98
2023-03-03T16:33:17.435Z,22.55
2023-03-03T16:35:50.639Z,20.67
2023-03-03T16:38:24.937Z,20.30
2023-03-03T16:40:55.806Z,22.00
2023-03-03T16:43:26.922Z,23.88
2023-03-03T16:48:31.769Z,19.73
2023-03-03T16:51:07.572Z,22.00
2023-03-03T16:53:48.108Z,21.05
2023-03-03T16:56:20.284Z,20.88
2023-03-03T16:58:58.222Z,22.88
2023-03-03T17:01:31.041Z,20.98
2023-03-03T17:04:03.772Z,21.75
2023-03-03T17:06:43.804Z,21.33
2023-03-03T17:09:36.702Z,20.27
2023-03-03T17:12:26.520Z,21.38
2023-03-03T17:15:14.981Z,20.42
2023-03-03T17:17:47.131Z,21.73
2023-03-03T17:20:26.791Z,20.10
2023-03-03T17:23:03.277Z,20.80
2023-03-03T17:25:37.882Z,20.92
2023-03-03T17:28:16.084Z,21.48
2023-03-03T17:30:48.052Z,20.35
2023-03-03T17:33:25.542Z,20.88
2023-03-03T17:36:03.845Z,21.40
2023-03-03T17:38:38.283Z,20.20
2023-03-03T17:41:12.453Z,21.05
2023-03-03T17:43:44.906Z,20.25
2023-03-03T17:46:18.068Z,19.88
2023-03-03T17:49:06.167Z,20.48
2023-03-03T17:52:09.157Z,20.35
2023-03-03T17:54:55.688Z,20.35
2023-03-03T17:57:34.998Z,20.38
2023-03-03T18:00:09.799Z,21.10
2023-03-03T18:02:56.878Z,21.40
2023-03-03T18:05:47.689Z,20.27
2023-03-03T18:08:28.546Z,21.08
2023-03-03T18:11:19.128Z,21.95
2023-03-03T18:14:04.043Z,21.95
2023-03-03T18:16:40.049Z,21.98
2023-03-03T18:19:20.544Z,21.80
2023-03-03T18:21:54.770Z,22.92
2023-03-03T18:24:33.095Z,21.50
2023-03-03T18:27:16.937Z,21.92
2023-03-03T18:30:10.015Z,21.20
2023-03-03T18:32:47.811Z,22.60
2023-03-03T18:35:25.774Z,22.67
2023-03-03T18:37:55.376Z,22.92
2023-03-03T18:40:31.989Z,23.50
2023-03-03T18:43:01.533Z,24.52
2023-03-03T18:45:55.012Z,29.75
2023-03-03T18:48:25.619Z,24.42
2023-03-03T18:50:55.107Z,24.08
2023-03-03T18:53:26.981Z,22.60
2023-03-03T18:55:56.978Z,23.85
2023-03-03T18:58:36.951Z,23.17
2023-03-03T19:01:41.553Z,23.52
2023-03-03T19:04:26.723Z,24.15
2023-03-03T19:07:26.898Z,23.80
2023-03-03T19:10:01.780Z,23.05
2023-03-03T19:12:48.111Z,23.38
2023-03-03T19:15:47.673Z,24.13
2023-03-03T19:18:18.416Z,24.23
2023-03-03T19:20:52.214Z,24.88
2023-03-03T19:23:23.151Z,25.60
2023-03-03T19:26:23.222Z,24.60
2023-03-03T19:28:54.230Z,25.98
2023-03-03T19:31:27.038Z,25.25
2023-03-03T19:33:57.262Z,26.00
2023-03-03T19:36:42.967Z,26.37
2023-03-03T19:39:40.473Z,25.55
2023-03-03T19:42:14.161Z,26.10
2023-03-03T19:44:51.221Z,25.33
2023-03-03T19:47:26.769Z,25.10
2023-03-03T19:50:00.830Z,24.73
2023-03-03T19:52:36.757Z,27.00
2023-03-03T19:55:16.801Z,25.42
2023-03-03T19:57:51.586Z,26.05
2023-03-03T20:00:23.825Z,25.95
2023-03-03T20:03:05.075Z,25.98
2023-03-03T20:05:35.794Z,25.55
2023-03-03T20:08:10.780Z,26.15
2023-03-03T20:10:43.674Z,26.13
2023-03-03T20:13:32.047Z,26.48
2023-03-03T20:16:05.664Z,26.73
2023-03-03T20:19:02.545Z,26.77
2023-03-03T20:21:35.112Z,26.77
2023-03-03T20:24:18.673Z,26.48
2023-03-03T20:26:57.799Z,26.95
2023-03-03T20:30:02.580Z,27.25
2023-03-03T20:32:36.892Z,26.38
2023-03-03T20:35:11.645Z,26.45
2023-03-03T20:37:47.056Z,26.63
2023-03-03T20:40:27.186Z,27.88
2023-03-03T20:43:03.111Z,27.30
2023-03-03T20:45:37.555Z,26.85
2023-03-03T20:48:14.135Z,27.58
2023-03-03T20:50:50.269Z,27.50
2023-03-03T20:53:23.200Z,27.70
2023-03-03T20:56:00.633Z,26.83
2023-03-03T20:58:34.168Z,27.25
2023-03-03T21:01:06.687Z,28.15
2023-03-03T21:03:37.469Z,31.92
2023-03-03T21:06:09.348Z,27.33
2023-03-03T21:08:48.410Z,27.95
2023-03-03T21:11:21.564Z,28.92
2023-03-03T21:13:52.053Z,28.27
2023-03-03T21:16:35.660Z,28.17
2023-03-03T21:19:06.185Z,29.15
2023-03-03T21:21:41.015Z,28.25
2023-03-03T21:24:13.241Z,29.55
2023-03-03T21:26:56.336Z,29.90
2023-03-03T21:29:27.650Z,30.95
2023-03-03T21:31:57.850Z,29.65
2023-03-03T21:34:29.502Z,28.73
2023-03-03T21:36:59.089Z,29.58
2023-03-03T21:39:32.410Z,29.80
2023-03-03T21:42:05.688Z,29.60
2023-03-03T21:44:40.831Z,30.83
2023-03-03T21:47:11.126Z,31.08
2023-03-03T21:49:43.263Z,30.08
2023-03-03T21:52:13.000Z,30.00
2023-03-03T21:54:42.696Z,31.15
2023-03-03T21:57:15.132Z,31.77
2023-03-03T21:59:44.616Z,30.95
2023-03-03T22:02:14.052Z,30.73
2023-03-03T22:04:43.606Z,29.52
2023-03-03T22:07:13.112Z,29.92
2023-03-03T22:09:42.591Z,31.20
2023-03-03T22:12:14.620Z,32.20
2023-03-03T22:14:44.102Z,30.75
2023-03-03T22:17:13.572Z,30.58
2023-03-03T22:19:42.999Z,29.80
2023-03-03T22:22:12.450Z,29.30
2023-03-03T22:24:42.053Z,28.55
2023-03-03T22:27:14.622Z,29.35
2023-03-03T22:29:44.089Z,28.25
2023-03-03T22:32:13.561Z,30.27
2023-03-03T22:34:43.262Z,32.05
2023-03-03T22:37:12.681Z,32.33
2023-03-03T22:39:42.255Z,29.33
2023-03-03T22:42:14.274Z,29.45
2023-03-03T22:44:45.892Z,28.63
2023-03-03T22:47:15.744Z,28.17
2023-03-03T22:49:45.207Z,29.20
2023-03-03T22:52:14.640Z,30.42
2023-03-03T22:54:44.215Z,30.13
2023-03-03T22:57:16.252Z,28.98
2023-03-03T22:59:45.720Z,29.65
2023-03-03T23:02:15.178Z,29.40
2023-03-03T23:04:44.714Z,28.92
2023-03-03T23:07:14.223Z,29.33
2023-03-03T23:09:43.723Z,29.85
2023-03-03T23:12:15.742Z,29.23
2023-03-03T23:14:45.196Z,28.98
2023-03-03T23:17:14.957Z,29.42
2023-03-03T23:19:46.244Z,28.83
2023-03-03T23:22:15.864Z,29.33
2023-03-03T23:24:45.717Z,29.25
2023-03-03T23:27:17.759Z,28.42
2023-03-03T23:29:47.244Z,29.48
2023-03-03T23:32:16.742Z,28.52
2023-03-03T23:34:46.224Z,31.00
2023-03-03T23:37:15.694Z,30.05
2023-03-03T23:39:45.151Z,28.88
2023-03-03T23:42:17.209Z,29.30
2023-03-03T23:44:46.707Z,28.58
2023-03-03T23:47:16.165Z,28.27
2023-03-03T23:49:45.625Z,28.67
2023-03-03T23:52:15.155Z,29.05
2023-03-03T23:54:44.612Z,29.20
2023-03-03T23:57:14.072Z,28.80
2023-03-03T23:59:46.172Z,31.35
